sensor_id;sensor_type;location;lat;lon;timestamp;pressure;altitude;pressure_sealevel;temperature;humidity
71948;BME280;63257;55.082;38.772;2023-07-20T00:01:39;98513.63;;;12.90;87.80
71948;BME280;63257;55.082;38.772;2023-07-20T00:04:10;98520.72;;;12.89;87.73
71948;BME280;63257;55.082;38.772;2023-07-20T00:06:36;98487.16;;;12.69;87.96
71948;BME280;63257;55.082;38.772;2023-07-20T00:09:07;98520.56;;;12.91;88.36
71948;BME280;63257;55.082;38.772;2023-07-20T00:11:36;98529.63;;;12.88;88.50
71948;BME280;63257;55.082;38.772;2023-07-20T00:14:04;98509.13;;;12.81;88.28
71948;BME280;63257;55.082;38.772;2023-07-20T00:16:30;98520.25;;;12.84;88.53
71948;BME280;63257;55.082;38.772;2023-07-20T00:18:56;98514.84;;;12.86;88.41
71948;BME280;63257;55.082;38.772;2023-07-20T00:21:22;98519.28;;;12.85;88.32
71948;BME280;63257;55.082;38.772;2023-07-20T00:23:48;98521.25;;;12.83;88.42
71948;BME280;63257;55.082;38.772;2023-07-20T00:26:15;98508.78;;;12.74;88.85
71948;BME280;63257;55.082;38.772;2023-07-20T00:28:43;98527.50;;;12.82;88.95
71948;BME280;63257;55.082;38.772;2023-07-20T00:31:09;98524.53;;;12.76;88.61
71948;BME280;63257;55.082;38.772;2023-07-20T00:33:36;98509.88;;;12.71;88.97
71948;BME280;63257;55.082;38.772;2023-07-20T00:36:02;98523.00;;;12.73;89.11
71948;BME280;63257;55.082;38.772;2023-07-20T00:38:28;98516.59;;;12.76;89.00
71948;BME280;63257;55.082;38.772;2023-07-20T00:40:54;98533.06;;;12.79;89.10
71948;BME280;63257;55.082;38.772;2023-07-20T00:43:20;98515.31;;;12.70;89.52
71948;BME280;63257;55.082;38.772;2023-07-20T00:45:46;98513.50;;;12.70;89.35
71948;BME280;63257;55.082;38.772;2023-07-20T00:48:13;98535.59;;;12.81;89.28
71948;BME280;63257;55.082;38.772;2023-07-20T00:50:40;98529.19;;;12.83;88.90
71948;BME280;63257;55.082;38.772;2023-07-20T00:53:08;98527.81;;;12.89;88.54
71948;BME280;63257;55.082;38.772;2023-07-20T00:55:35;98546.38;;;12.89;88.56
71948;BME280;63257;55.082;38.772;2023-07-20T00:58:01;98542.03;;;12.88;88.10
71948;BME280;63257;55.082;38.772;2023-07-20T01:00:27;98540.09;;;12.90;88.63
71948;BME280;63257;55.082;38.772;2023-07-20T01:02:53;98547.19;;;12.89;88.86
71948;BME280;63257;55.082;38.772;2023-07-20T01:05:21;98530.84;;;12.84;89.26
71948;BME280;63257;55.082;38.772;2023-07-20T01:07:53;98536.28;;;12.83;89.37
71948;BME280;63257;55.082;38.772;2023-07-20T01:10:36;98543.53;;;12.81;89.67
71948;BME280;63257;55.082;38.772;2023-07-20T01:13:06;98533.31;;;12.76;89.92
71948;BME280;63257;55.082;38.772;2023-07-20T01:15:38;98524.34;;;12.67;90.38
71948;BME280;63257;55.082;38.772;2023-07-20T01:18:05;98546.81;;;12.73;90.71
71948;BME280;63257;55.082;38.772;2023-07-20T01:20:32;98540.09;;;12.69;90.80
71948;BME280;63257;55.082;38.772;2023-07-20T01:29:22;98541.25;;;12.76;90.53
71948;BME280;63257;55.082;38.772;2023-07-20T01:31:57;98533.84;;;12.70;90.22
71948;BME280;63257;55.082;38.772;2023-07-20T01:34:24;98535.41;;;12.72;90.62
71948;BME280;63257;55.082;38.772;2023-07-20T01:36:52;98531.66;;;12.75;90.66
71948;BME280;63257;55.082;38.772;2023-07-20T01:39:20;98515.00;;;12.63;90.69
71948;BME280;63257;55.082;38.772;2023-07-20T01:41:47;98515.97;;;12.62;90.81
71948;BME280;63257;55.082;38.772;2023-07-20T01:44:13;98509.25;;;12.58;91.04
71948;BME280;63257;55.082;38.772;2023-07-20T01:46:38;98520.75;;;12.68;91.12
71948;BME280;63257;55.082;38.772;2023-07-20T01:49:04;98520.56;;;12.60;91.14
71948;BME280;63257;55.082;38.772;2023-07-20T01:51:31;98539.28;;;12.68;91.31
71948;BME280;63257;55.082;38.772;2023-07-20T01:53:57;98532.28;;;12.67;91.24
71948;BME280;63257;55.082;38.772;2023-07-20T01:56:23;98539.53;;;12.65;91.10
71948;BME280;63257;55.082;38.772;2023-07-20T01:58:49;98542.06;;;12.67;91.26
71948;BME280;63257;55.082;38.772;2023-07-20T02:01:15;98542.06;;;12.67;91.42
71948;BME280;63257;55.082;38.772;2023-07-20T02:03:40;98535.72;;;12.58;91.20
71948;BME280;63257;55.082;38.772;2023-07-20T02:06:06;98549.88;;;12.68;91.44
71948;BME280;63257;55.082;38.772;2023-07-20T02:08:32;98548.44;;;12.64;91.61
71948;BME280;63257;55.082;38.772;2023-07-20T02:10:58;98548.56;;;12.63;91.52
71948;BME280;63257;55.082;38.772;2023-07-20T02:13:24;98543.41;;;12.61;91.70
71948;BME280;63257;55.082;38.772;2023-07-20T02:15:50;98547.03;;;12.60;91.48
71948;BME280;63257;55.082;38.772;2023-07-20T02:18:16;98553.59;;;12.66;91.45
71948;BME280;63257;55.082;38.772;2023-07-20T02:20:42;98549.53;;;12.62;91.87
71948;BME280;63257;55.082;38.772;2023-07-20T02:23:08;98569.09;;;12.70;91.93
71948;BME280;63257;55.082;38.772;2023-07-20T02:25:34;98550.44;;;12.72;91.65
71948;BME280;63257;55.082;38.772;2023-07-20T02:28:00;98561.59;;;12.76;91.40
71948;BME280;63257;55.082;38.772;2023-07-20T02:30:26;98550.06;;;12.77;91.17
71948;BME280;63257;55.082;38.772;2023-07-20T02:32:54;98544.31;;;12.71;91.63
71948;BME280;63257;55.082;38.772;2023-07-20T02:35:21;98562.06;;;12.81;91.13
71948;BME280;63257;55.082;38.772;2023-07-20T02:37:47;98562.88;;;12.81;90.99
71948;BME280;63257;55.082;38.772;2023-07-20T02:40:13;98563.22;;;12.88;90.99
71948;BME280;63257;55.082;38.772;2023-07-20T02:42:39;98574.53;;;12.90;90.67
71948;BME280;63257;55.082;38.772;2023-07-20T02:45:06;98548.28;;;12.87;90.65
71948;BME280;63257;55.082;38.772;2023-07-20T02:47:35;98567.75;;;12.97;90.46
71948;BME280;63257;55.082;38.772;2023-07-20T02:50:01;98549.72;;;12.91;90.41
71948;BME280;63257;55.082;38.772;2023-07-20T02:52:31;98555.19;;;12.99;89.70
71948;BME280;63257;55.082;38.772;2023-07-20T02:54:58;98558.56;;;13.01;89.95
71948;BME280;63257;55.082;38.772;2023-07-20T02:57:24;98573.84;;;13.19;89.04
71948;BME280;63257;55.082;38.772;2023-07-20T02:59:49;98553.56;;;13.08;88.77
71948;BME280;63257;55.082;38.772;2023-07-20T03:02:15;98577.06;;;13.22;88.92
71948;BME280;63257;55.082;38.772;2023-07-20T03:04:42;98548.69;;;13.13;89.08
71948;BME280;63257;55.082;38.772;2023-07-20T03:07:08;98554.19;;;13.21;89.15
71948;BME280;63257;55.082;38.772;2023-07-20T03:09:34;98575.31;;;13.33;88.53
71948;BME280;63257;55.082;38.772;2023-07-20T03:12:00;98552.84;;;13.27;87.99
71948;BME280;63257;55.082;38.772;2023-07-20T03:14:27;98556.91;;;13.31;87.94
71948;BME280;63257;55.082;38.772;2023-07-20T03:16:55;98554.94;;;13.33;88.03
71948;BME280;63257;55.082;38.772;2023-07-20T03:19:21;98560.22;;;13.33;87.40
71948;BME280;63257;55.082;38.772;2023-07-20T03:21:47;98571.22;;;13.50;86.98
71948;BME280;63257;55.082;38.772;2023-07-20T03:24:14;98589.25;;;13.56;87.01
71948;BME280;63257;55.082;38.772;2023-07-20T03:26:40;98578.22;;;13.61;86.28
71948;BME280;63257;55.082;38.772;2023-07-20T03:29:07;98585.22;;;13.62;86.01
71948;BME280;63257;55.082;38.772;2023-07-20T03:31:34;98575.00;;;13.57;86.23
71948;BME280;63257;55.082;38.772;2023-07-20T03:34:01;98597.25;;;13.76;86.07
71948;BME280;63257;55.082;38.772;2023-07-20T03:36:27;98596.97;;;13.79;85.52
71948;BME280;63257;55.082;38.772;2023-07-20T03:38:53;98598.94;;;13.77;85.34
71948;BME280;63257;55.082;38.772;2023-07-20T03:41:19;98588.75;;;13.82;85.28
71948;BME280;63257;55.082;38.772;2023-07-20T03:43:47;98584.84;;;13.86;84.88
71948;BME280;63257;55.082;38.772;2023-07-20T03:46:14;98574.94;;;13.88;84.48
71948;BME280;63257;55.082;38.772;2023-07-20T03:48:40;98567.28;;;13.85;84.32
71948;BME280;63257;55.082;38.772;2023-07-20T03:51:06;98607.25;;;14.03;83.65
71948;BME280;63257;55.082;38.772;2023-07-20T03:53:32;98571.75;;;13.94;83.76
71948;BME280;63257;55.082;38.772;2023-07-20T03:55:58;98590.47;;;14.12;83.23
71948;BME280;63257;55.082;38.772;2023-07-20T03:58:24;98584.91;;;14.15;82.53
71948;BME280;63257;55.082;38.772;2023-07-20T04:00:51;98579.31;;;14.08;82.77
71948;BME280;63257;55.082;38.772;2023-07-20T04:03:18;98601.00;;;14.23;82.09
71948;BME280;63257;55.082;38.772;2023-07-20T04:05:45;98604.91;;;14.29;81.84
71948;BME280;63257;55.082;38.772;2023-07-20T04:08:11;98586.31;;;14.39;82.03
71948;BME280;63257;55.082;38.772;2023-07-20T04:10:38;98595.25;;;14.38;81.46
71948;BME280;63257;55.082;38.772;2023-07-20T04:13:04;98595.41;;;14.46;80.29
71948;BME280;63257;55.082;38.772;2023-07-20T04:15:30;98600.31;;;14.51;80.57
71948;BME280;63257;55.082;38.772;2023-07-20T04:17:57;98604.91;;;14.58;80.52
71948;BME280;63257;55.082;38.772;2023-07-20T04:20:23;98593.31;;;14.69;80.32
71948;BME280;63257;55.082;38.772;2023-07-20T04:22:50;98598.19;;;14.74;79.47
71948;BME280;63257;55.082;38.772;2023-07-20T04:25:18;98610.78;;;14.82;79.31
71948;BME280;63257;55.082;38.772;2023-07-20T04:27:46;98599.34;;;14.81;79.01
71948;BME280;63257;55.082;38.772;2023-07-20T04:30:13;98601.13;;;14.81;78.41
71948;BME280;63257;55.082;38.772;2023-07-20T04:32:39;98598.50;;;14.71;78.33
71948;BME280;63257;55.082;38.772;2023-07-20T04:36:02;98619.31;;;14.85;78.54
71948;BME280;63257;55.082;38.772;2023-07-20T04:38:03;98598.19;;;14.93;78.37
71948;BME280;63257;55.082;38.772;2023-07-20T04:40:29;98592.88;;;14.93;77.21
71948;BME280;63257;55.082;38.772;2023-07-20T04:42:55;98594.28;;;14.98;77.58
71948;BME280;63257;55.082;38.772;2023-07-20T04:45:21;98622.91;;;15.14;77.27
71948;BME280;63257;55.082;38.772;2023-07-20T04:47:48;98590.31;;;15.12;77.02
71948;BME280;63257;55.082;38.772;2023-07-20T04:50:16;98604.00;;;15.26;76.89
71948;BME280;63257;55.082;38.772;2023-07-20T04:52:42;98605.66;;;15.27;76.47
71948;BME280;63257;55.082;38.772;2023-07-20T04:55:09;98612.75;;;15.37;76.14
71948;BME280;63257;55.082;38.772;2023-07-20T04:57:35;98594.56;;;15.42;76.04
71948;BME280;63257;55.082;38.772;2023-07-20T05:00:00;98582.34;;;15.49;75.93
71948;BME280;63257;55.082;38.772;2023-07-20T05:02:31;98610.72;;;15.58;74.59
71948;BME280;63257;55.082;38.772;2023-07-20T05:04:57;98606.66;;;15.64;74.44
71948;BME280;63257;55.082;38.772;2023-07-20T05:07:23;98594.94;;;15.57;73.79
71948;BME280;63257;55.082;38.772;2023-07-20T05:09:49;98601.56;;;15.71;74.16
71948;BME280;63257;55.082;38.772;2023-07-20T05:12:15;98590.13;;;15.70;73.76
71948;BME280;63257;55.082;38.772;2023-07-20T05:14:41;98596.03;;;15.92;73.30
71948;BME280;63257;55.082;38.772;2023-07-20T05:17:09;98579.22;;;15.91;73.94
71948;BME280;63257;55.082;38.772;2023-07-20T05:19:35;98602.22;;;16.10;73.83
71948;BME280;63257;55.082;38.772;2023-07-20T05:22:01;98603.75;;;16.13;72.79
71948;BME280;63257;55.082;38.772;2023-07-20T05:24:27;98593.25;;;16.11;71.59
71948;BME280;63257;55.082;38.772;2023-07-20T05:26:52;98625.97;;;16.22;72.16
71948;BME280;63257;55.082;38.772;2023-07-20T05:29:19;98612.09;;;16.18;71.54
71948;BME280;63257;55.082;38.772;2023-07-20T05:31:45;98608.56;;;16.27;70.74
71948;BME280;63257;55.082;38.772;2023-07-20T05:34:10;98614.41;;;16.31;70.01
71948;BME280;63257;55.082;38.772;2023-07-20T05:36:36;98613.88;;;16.45;70.21
71948;BME280;63257;55.082;38.772;2023-07-20T05:39:02;98616.63;;;16.54;69.54
71948;BME280;63257;55.082;38.772;2023-07-20T05:41:28;98645.41;;;16.50;68.71
71948;BME280;63257;55.082;38.772;2023-07-20T05:43:54;98604.59;;;16.50;68.51
71948;BME280;63257;55.082;38.772;2023-07-20T05:46:21;98602.31;;;16.55;68.70
71948;BME280;63257;55.082;38.772;2023-07-20T05:48:47;98631.75;;;16.71;68.43
71948;BME280;63257;55.082;38.772;2023-07-20T05:51:13;98611.50;;;16.78;68.79
71948;BME280;63257;55.082;38.772;2023-07-20T05:53:39;98613.50;;;16.76;67.10
71948;BME280;63257;55.082;38.772;2023-07-20T05:56:05;98605.88;;;16.82;66.89
71948;BME280;63257;55.082;38.772;2023-07-20T05:58:31;98648.19;;;16.85;65.33
71948;BME280;63257;55.082;38.772;2023-07-20T06:00:57;98610.13;;;16.92;65.84
71948;BME280;63257;55.082;38.772;2023-07-20T06:03:23;98615.13;;;17.13;66.77
71948;BME280;63257;55.082;38.772;2023-07-20T06:05:49;98620.53;;;17.22;65.98
71948;BME280;63257;55.082;38.772;2023-07-20T06:08:15;98623.84;;;17.24;65.36
71948;BME280;63257;55.082;38.772;2023-07-20T06:10:41;98645.72;;;17.27;65.72
71948;BME280;63257;55.082;38.772;2023-07-20T06:13:06;98634.56;;;17.32;64.92
71948;BME280;63257;55.082;38.772;2023-07-20T06:15:33;98613.34;;;17.22;63.85
71948;BME280;63257;55.082;38.772;2023-07-20T06:18:02;98631.13;;;17.40;64.66
71948;BME280;63257;55.082;38.772;2023-07-20T06:20:30;98634.66;;;17.49;63.74
71948;BME280;63257;55.082;38.772;2023-07-20T06:22:56;98628.38;;;17.58;62.94
71948;BME280;63257;55.082;38.772;2023-07-20T06:25:22;98630.28;;;17.66;63.68
71948;BME280;63257;55.082;38.772;2023-07-20T06:27:49;98630.47;;;17.72;63.25
71948;BME280;63257;55.082;38.772;2023-07-20T06:30:19;98641.88;;;17.56;63.55
71948;BME280;63257;55.082;38.772;2023-07-20T06:32:45;98629.75;;;17.62;63.30
71948;BME280;63257;55.082;38.772;2023-07-20T06:35:12;98639.78;;;17.68;62.18
71948;BME280;63257;55.082;38.772;2023-07-20T06:37:38;98639.97;;;17.75;61.61
71948;BME280;63257;55.082;38.772;2023-07-20T06:40:05;98643.84;;;17.80;60.60
71948;BME280;63257;55.082;38.772;2023-07-20T06:42:31;98631.34;;;17.81;61.47
71948;BME280;63257;55.082;38.772;2023-07-20T06:44:58;98642.28;;;17.96;61.28
71948;BME280;63257;55.082;38.772;2023-07-20T06:47:24;98628.00;;;17.87;60.70
71948;BME280;63257;55.082;38.772;2023-07-20T06:49:52;98637.59;;;17.98;60.22
71948;BME280;63257;55.082;38.772;2023-07-20T06:52:17;98634.09;;;17.97;59.76
71948;BME280;63257;55.082;38.772;2023-07-20T06:54:43;98629.63;;;18.06;60.34
71948;BME280;63257;55.082;38.772;2023-07-20T06:57:09;98625.78;;;18.09;59.00
71948;BME280;63257;55.082;38.772;2023-07-20T06:59:35;98635.69;;;18.25;59.35
71948;BME280;63257;55.082;38.772;2023-07-20T07:02:01;98649.03;;;18.25;58.33
71948;BME280;63257;55.082;38.772;2023-07-20T07:04:27;98638.00;;;18.20;57.30
71948;BME280;63257;55.082;38.772;2023-07-20T07:06:53;98629.19;;;18.27;57.55
71948;BME280;63257;55.082;38.772;2023-07-20T07:09:19;98643.72;;;18.33;58.16
71948;BME280;63257;55.082;38.772;2023-07-20T07:11:46;98644.91;;;18.47;57.52
71948;BME280;63257;55.082;38.772;2023-07-20T07:14:12;98668.28;;;18.53;57.60
71948;BME280;63257;55.082;38.772;2023-07-20T07:16:38;98651.28;;;18.62;56.90
71948;BME280;63257;55.082;38.772;2023-07-20T07:19:06;98648.13;;;18.67;55.99
71948;BME280;63257;55.082;38.772;2023-07-20T07:21:34;98636.25;;;18.70;55.22
71948;BME280;63257;55.082;38.772;2023-07-20T07:24:00;98635.41;;;18.69;55.57
71948;BME280;63257;55.082;38.772;2023-07-20T07:26:26;98652.97;;;18.72;55.25
71948;BME280;63257;55.082;38.772;2023-07-20T07:28:52;98643.44;;;18.69;55.39
71948;BME280;63257;55.082;38.772;2023-07-20T07:31:18;98635.75;;;18.74;54.44
71948;BME280;63257;55.082;38.772;2023-07-20T07:33:44;98637.28;;;18.85;54.35
71948;BME280;63257;55.082;38.772;2023-07-20T07:36:10;98654.16;;;19.02;54.59
71948;BME280;63257;55.082;38.772;2023-07-20T07:38:37;98659.84;;;19.15;55.75
71948;BME280;63257;55.082;38.772;2023-07-20T07:41:04;98664.50;;;19.22;55.35
71948;BME280;63257;55.082;38.772;2023-07-20T07:43:29;98635.78;;;19.24;53.64
71948;BME280;63257;55.082;38.772;2023-07-20T07:45:55;98656.81;;;19.27;53.40
71948;BME280;63257;55.082;38.772;2023-07-20T07:48:23;98662.34;;;19.25;52.81
71948;BME280;63257;55.082;38.772;2023-07-20T07:50:51;98678.22;;;19.27;52.58
71948;BME280;63257;55.082;38.772;2023-07-20T07:53:17;98674.22;;;19.31;52.85
71948;BME280;63257;55.082;38.772;2023-07-20T07:55:44;98649.75;;;19.50;52.39
71948;BME280;63257;55.082;38.772;2023-07-20T07:58:10;98648.22;;;19.56;52.01
71948;BME280;63257;55.082;38.772;2023-07-20T08:00:36;98620.16;;;19.52;52.28
71948;BME280;63257;55.082;38.772;2023-07-20T08:03:02;98659.94;;;19.63;52.34
71948;BME280;63257;55.082;38.772;2023-07-20T08:05:28;98666.09;;;19.72;51.11
71948;BME280;63257;55.082;38.772;2023-07-20T08:07:54;98640.84;;;19.75;51.44
71948;BME280;63257;55.082;38.772;2023-07-20T08:10:20;98661.72;;;19.88;50.78
71948;BME280;63257;55.082;38.772;2023-07-20T08:12:45;98643.66;;;19.90;50.18
71948;BME280;63257;55.082;38.772;2023-07-20T08:15:11;98655.72;;;19.86;49.94
71948;BME280;63257;55.082;38.772;2023-07-20T08:17:41;98657.50;;;19.93;49.93
71948;BME280;63257;55.082;38.772;2023-07-20T08:20:10;98660.56;;;19.82;49.21
71948;BME280;63257;55.082;38.772;2023-07-20T08:22:39;98690.34;;;19.87;49.95
71948;BME280;63257;55.082;38.772;2023-07-20T08:25:06;98639.97;;;19.91;50.07
71948;BME280;63257;55.082;38.772;2023-07-20T08:27:32;98657.06;;;20.21;49.36
71948;BME280;63257;55.082;38.772;2023-07-20T08:29:57;98654.81;;;20.33;49.27
71948;BME280;63257;55.082;38.772;2023-07-20T08:32:24;98673.34;;;20.43;48.87
71948;BME280;63257;55.082;38.772;2023-07-20T08:34:50;98667.88;;;20.36;49.10
71948;BME280;63257;55.082;38.772;2023-07-20T08:37:16;98670.16;;;20.47;49.02
71948;BME280;63257;55.082;38.772;2023-07-20T08:39:42;98666.03;;;20.37;48.80
71948;BME280;63257;55.082;38.772;2023-07-20T08:42:09;98670.47;;;20.53;48.14
71948;BME280;63257;55.082;38.772;2023-07-20T08:44:37;98665.84;;;20.70;48.00
71948;BME280;63257;55.082;38.772;2023-07-20T08:47:04;98692.41;;;20.48;47.16
71948;BME280;63257;55.082;38.772;2023-07-20T08:49:31;98672.59;;;20.57;47.36
71948;BME280;63257;55.082;38.772;2023-07-20T08:51:59;98659.59;;;20.77;47.66
71948;BME280;63257;55.082;38.772;2023-07-20T08:54:29;98694.28;;;20.79;47.76
71948;BME280;63257;55.082;38.772;2023-07-20T08:56:57;98654.41;;;20.76;46.63
71948;BME280;63257;55.082;38.772;2023-07-20T08:59:24;98653.28;;;20.62;45.44
71948;BME280;63257;55.082;38.772;2023-07-20T09:01:52;98662.44;;;20.76;45.19
71948;BME280;63257;55.082;38.772;2023-07-20T09:04:22;98685.19;;;20.80;44.87
71948;BME280;63257;55.082;38.772;2023-07-20T09:06:49;98681.63;;;20.88;44.93
71948;BME280;63257;55.082;38.772;2023-07-20T09:09:16;98682.97;;;20.60;44.73
71948;BME280;63257;55.082;38.772;2023-07-20T09:11:42;98685.19;;;20.57;46.26
71948;BME280;63257;55.082;38.772;2023-07-20T09:14:09;98671.16;;;20.78;45.31
71948;BME280;63257;55.082;38.772;2023-07-20T09:17:02;98687.34;;;21.08;45.05
71948;BME280;63257;55.082;38.772;2023-07-20T09:19:28;98686.84;;;21.27;44.94
71948;BME280;63257;55.082;38.772;2023-07-20T09:21:54;98686.91;;;21.19;44.27
71948;BME280;63257;55.082;38.772;2023-07-20T09:24:20;98669.50;;;21.15;43.99
71948;BME280;63257;55.082;38.772;2023-07-20T09:26:48;98689.34;;;21.29;44.14
71948;BME280;63257;55.082;38.772;2023-07-20T09:29:18;98675.88;;;21.52;44.63
71948;BME280;63257;55.082;38.772;2023-07-20T09:31:59;98678.56;;;21.14;46.10
71948;BME280;63257;55.082;38.772;2023-07-20T09:34:26;98677.31;;;21.25;45.14
71948;BME280;63257;55.082;38.772;2023-07-20T09:36:52;98666.13;;;21.36;45.38
71948;BME280;63257;55.082;38.772;2023-07-20T09:39:18;98672.84;;;21.55;44.58
71948;BME280;63257;55.082;38.772;2023-07-20T09:41:44;98673.25;;;21.67;43.45
71948;BME280;63257;55.082;38.772;2023-07-20T09:44:10;98658.44;;;21.71;43.66
71948;BME280;63257;55.082;38.772;2023-07-20T09:46:49;98674.88;;;21.83;43.31
71948;BME280;63257;55.082;38.772;2023-07-20T09:49:17;98689.91;;;21.92;44.49
71948;BME280;63257;55.082;38.772;2023-07-20T09:51:45;98663.59;;;21.73;43.48
71948;BME280;63257;55.082;38.772;2023-07-20T09:54:13;98669.25;;;21.63;43.03
71948;BME280;63257;55.082;38.772;2023-07-20T09:56:39;98673.53;;;21.72;43.34
71948;BME280;63257;55.082;38.772;2023-07-20T09:59:06;98683.31;;;21.80;42.83
71948;BME280;63257;55.082;38.772;2023-07-20T10:01:33;98668.88;;;21.96;42.67
71948;BME280;63257;55.082;38.772;2023-07-20T10:04:02;98679.25;;;21.99;43.82
71948;BME280;63257;55.082;38.772;2023-07-20T10:06:32;98670.66;;;21.89;44.63
71948;BME280;63257;55.082;38.772;2023-07-20T10:09:01;98668.31;;;22.00;44.04
71948;BME280;63257;55.082;38.772;2023-07-20T10:11:31;98674.34;;;22.02;42.08
71948;BME280;63257;55.082;38.772;2023-07-20T10:14:03;98667.59;;;22.07;42.59
71948;BME280;63257;55.082;38.772;2023-07-20T10:16:35;98662.06;;;22.30;41.89
71948;BME280;63257;55.082;38.772;2023-07-20T10:19:24;98668.81;;;22.41;41.35
71948;BME280;63257;55.082;38.772;2023-07-20T10:22:12;98666.13;;;22.41;43.22
71948;BME280;63257;55.082;38.772;2023-07-20T10:24:39;98673.41;;;22.62;42.55
71948;BME280;63257;55.082;38.772;2023-07-20T10:27:07;98680.47;;;22.63;42.89
71948;BME280;63257;55.082;38.772;2023-07-20T10:29:33;98680.50;;;22.48;42.56
71948;BME280;63257;55.082;38.772;2023-07-20T10:31:59;98654.25;;;21.83;43.10
71948;BME280;63257;55.082;38.772;2023-07-20T10:34:25;98688.88;;;22.08;43.19
71948;BME280;63257;55.082;38.772;2023-07-20T10:36:51;98683.13;;;21.81;42.90
71948;BME280;63257;55.082;38.772;2023-07-20T10:39:27;98682.88;;;21.76;43.32
71948;BME280;63257;55.082;38.772;2023-07-20T10:42:06;98684.59;;;22.14;43.44
71948;BME280;63257;55.082;38.772;2023-07-20T10:44:33;98697.94;;;22.22;42.96
71948;BME280;63257;55.082;38.772;2023-07-20T10:47:01;98674.97;;;22.05;43.53
71948;BME280;63257;55.082;38.772;2023-07-20T10:49:28;98674.34;;;22.02;44.35
71948;BME280;63257;55.082;38.772;2023-07-20T10:51:59;98676.84;;;21.89;42.92
71948;BME280;63257;55.082;38.772;2023-07-20T10:56:55;98707.06;;;21.76;43.17
71948;BME280;63257;55.082;38.772;2023-07-20T11:01:59;98674.94;;;21.45;45.52
71948;BME280;63257;55.082;38.772;2023-07-20T11:04:43;98676.38;;;21.56;45.54
71948;BME280;63257;55.082;38.772;2023-07-20T11:07:09;98680.19;;;21.61;45.41
71948;BME280;63257;55.082;38.772;2023-07-20T11:09:37;98702.59;;;21.45;45.41
71948;BME280;63257;55.082;38.772;2023-07-20T11:12:13;98684.97;;;21.28;46.04
71948;BME280;63257;55.082;38.772;2023-07-20T11:14:46;98681.28;;;21.29;47.08
71948;BME280;63257;55.082;38.772;2023-07-20T11:17:18;98691.66;;;21.32;47.32
71948;BME280;63257;55.082;38.772;2023-07-20T11:19:56;98696.25;;;21.46;46.99
71948;BME280;63257;55.082;38.772;2023-07-20T11:22:22;98698.34;;;22.34;45.58
71948;BME280;63257;55.082;38.772;2023-07-20T11:24:48;98686.41;;;22.80;43.67
71948;BME280;63257;55.082;38.772;2023-07-20T11:27:15;98692.97;;;23.42;42.04
71948;BME280;63257;55.082;38.772;2023-07-20T11:29:41;98680.13;;;23.37;41.98
71948;BME280;63257;55.082;38.772;2023-07-20T11:32:07;98678.03;;;22.90;42.45
71948;BME280;63257;55.082;38.772;2023-07-20T11:34:34;98700.75;;;23.09;42.69
71948;BME280;63257;55.082;38.772;2023-07-20T11:37:01;98672.63;;;22.31;44.02
71948;BME280;63257;55.082;38.772;2023-07-20T11:39:29;98694.34;;;22.00;44.95
71948;BME280;63257;55.082;38.772;2023-07-20T11:41:56;98702.88;;;21.89;45.69
71948;BME280;63257;55.082;38.772;2023-07-20T11:44:24;98687.97;;;22.01;46.37
71948;BME280;63257;55.082;38.772;2023-07-20T11:47:04;98692.19;;;22.40;46.24
71948;BME280;63257;55.082;38.772;2023-07-20T11:49:34;98699.28;;;23.06;42.37
71948;BME280;63257;55.082;38.772;2023-07-20T11:52:01;98693.41;;;23.17;42.15
71948;BME280;63257;55.082;38.772;2023-07-20T11:54:27;98705.94;;;22.67;43.27
71948;BME280;63257;55.082;38.772;2023-07-20T11:56:55;98711.19;;;22.39;44.39
71948;BME280;63257;55.082;38.772;2023-07-20T11:59:21;98701.66;;;22.06;45.63
71948;BME280;63257;55.082;38.772;2023-07-20T12:01:47;98718.72;;;21.83;46.44
71948;BME280;63257;55.082;38.772;2023-07-20T12:04:13;98690.00;;;21.46;46.61
71948;BME280;63257;55.082;38.772;2023-07-20T12:06:39;98705.28;;;21.83;46.80
71948;BME280;63257;55.082;38.772;2023-07-20T12:09:05;98703.84;;;22.47;45.74
71948;BME280;63257;55.082;38.772;2023-07-20T12:11:37;98704.56;;;23.14;43.31
71948;BME280;63257;55.082;38.772;2023-07-20T12:14:07;98697.53;;;23.42;41.22
71948;BME280;63257;55.082;38.772;2023-07-20T12:16:35;98709.94;;;23.14;42.49
71948;BME280;63257;55.082;38.772;2023-07-20T12:19:07;98702.78;;;23.07;43.70
71948;BME280;63257;55.082;38.772;2023-07-20T12:21:38;98699.97;;;22.35;45.37
71948;BME280;63257;55.082;38.772;2023-07-20T12:24:06;98716.47;;;22.02;47.20
71948;BME280;63257;55.082;38.772;2023-07-20T12:26:33;98688.34;;;21.68;47.63
71948;BME280;63257;55.082;38.772;2023-07-20T12:28:59;98715.53;;;21.65;48.71
71948;BME280;63257;55.082;38.772;2023-07-20T12:31:27;98722.94;;;21.63;48.97
71948;BME280;63257;55.082;38.772;2023-07-20T12:33:53;98719.25;;;21.79;49.34
71948;BME280;63257;55.082;38.772;2023-07-20T12:36:23;98718.16;;;21.88;47.62
71948;BME280;63257;55.082;38.772;2023-07-20T12:38:48;98718.91;;;21.97;46.43
71948;BME280;63257;55.082;38.772;2023-07-20T12:41:14;98717.28;;;21.58;46.13
71948;BME280;63257;55.082;38.772;2023-07-20T12:43:41;98714.72;;;21.41;46.01
71948;BME280;63257;55.082;38.772;2023-07-20T12:46:08;98694.25;;;21.40;46.16
71948;BME280;63257;55.082;38.772;2023-07-20T12:48:36;98705.38;;;21.75;46.06
71948;BME280;63257;55.082;38.772;2023-07-20T12:51:03;98695.75;;;21.96;45.70
71948;BME280;63257;55.082;38.772;2023-07-20T12:53:31;98689.97;;;22.14;45.39
71948;BME280;63257;55.082;38.772;2023-07-20T12:55:58;98710.38;;;22.23;45.25
71948;BME280;63257;55.082;38.772;2023-07-20T12:58:24;98688.25;;;23.44;42.71
71948;BME280;63257;55.082;38.772;2023-07-20T13:00:51;98688.94;;;24.23;41.70
71948;BME280;63257;55.082;38.772;2023-07-20T13:03:16;98684.69;;;24.55;40.22